CN02 weather

San Francisco Va Medical Center Heliport
San Francisco, California, United States

Public forecast

Using degrees Fahrenheit for public forecast. Weather courtesy of forecast.io.

METAR (pilot weather report)

Closest report is San Francisco International Airport, 11.7 nm (21.6 km) SSE. Retrieved 2019/08/21 13:56 UTC (51 minutes ago):

KSFO 211356Z 28008KT 10SM FEW010 FEW200 16/13 A2998 RMK AO2 SLP152 T01610128

TAF (pilot weather forecast)

Closest forecast is San Francisco International Airport, 11.7 nm (21.6 km) SSE. Retrieved 2019/08/21 12:40 UTC (2 hours ago):

TAF KSFO 211137Z 2112/2218 27007KT P6SM FEW010 TEMPO 2113/2117 BKN013 FM211700 26012KT P6SM FEW015 FM212100 27020G32KT P6SM FEW015 FM220400 27014KT P6SM FEW015 FM221200 27010KT P6SM SCT015